Time;durP1;ratioP1;P1;durP2;ratioP2;P2;SDS_P1;SDS_P2;PMS_P1;PMS_P2;Temp;Humidity;BMP_temperature;BMP_pressure;BME280_temperature;BME280_humidity;BME280_pressure;Samples;Min_cycle;Max_cycle;Signal;HPM_P1;HPM_P2
2021/12/30 00:01:57;;;;;;;1.23;0.50;;;;;;;;;;20796038;28;20214;-68
2021/12/30 00:11:59;;;;;;;1.73;0.30;;;;;;;;;;20796807;28;20226;-67
2021/12/30 00:22:01;;;;;;;0.50;0.50;;;;;;;;;;20810292;28;20292;-67
2021/12/30 00:32:04;;;;;;;0.57;0.30;;;;;;;;;;20794078;28;20698;-67
2021/12/30 00:42:06;;;;;;;0.40;0.40;;;;;;;;;;20793497;28;20210;-67
2021/12/30 00:52:08;;;;;;;0.30;0.30;;;;;;;;;;20809200;28;20288;-67
2021/12/30 01:02:11;;;;;;;1.07;0.63;;;;;;;;;;20809153;28;20292;-67
2021/12/30 01:12:12;;;;;;;0.83;0.53;;;;;;;;;;20774989;28;20456;-69
2021/12/30 01:22:22;;;;;;;0.80;0.50;;;10.60;99.90;;;;;;20791629;28;20583;-66
2021/12/30 01:32:24;;;;;;;1.00;0.50;;;;;;;;;;20774723;28;20276;-68
2021/12/30 01:42:26;;;;;;;0.57;0.37;;;10.50;99.90;;;;;;20806973;28;20222;-69
2021/12/30 01:52:28;;;;;;;0.40;0.30;;;;;;;;;;20806812;28;20249;-69
2021/12/30 02:02:30;;;;;;;1.00;0.57;;;;;;;;;;20789601;28;20215;-68
2021/12/30 02:12:33;;;;;;;1.33;0.57;;;;;;;;;;20805580;28;20280;-68
2021/12/30 02:22:35;;;;;;;0.87;0.37;;;;;;;;;;20825060;28;20265;-69
2021/12/30 02:32:37;;;;;;;0.97;0.37;;;;;;;;;;20820172;28;20199;-66
2021/12/30 02:42:39;;;;;;;1.37;0.70;;;;;;;;;;20814253;28;20203;-68
2021/12/30 02:52:41;;;;;;;0.57;0.37;;;15.00;99.90;;;;;;20802085;28;20687;-69
2021/12/30 03:02:43;;;;;;;0.70;0.40;;;;;;;;;;20801406;28;20556;-69
2021/12/30 03:12:45;;;;;;;0.50;0.30;;;;;;;;;;20817006;28;20246;-68
2021/12/30 03:22:48;;;;;;;0.50;0.30;;;12.50;99.90;;;;;;20815260;28;20230;-68
2021/12/30 03:32:50;;;;;;;1.03;0.43;;;11.10;99.90;;;;;;20798163;28;20751;-69
2021/12/30 03:42:53;;;;;;;0.60;0.30;;;;;;;;;;20830886;28;20240;-69
2021/12/30 03:52:58;;;;;;;0.57;0.30;;;10.80;99.90;;;;;;20797415;28;20206;-69
2021/12/30 04:03:00;;;;;;;0.30;0.30;;;;;;;;;;20765030;28;20268;-68
2021/12/30 04:13:02;;;;;;;0.20;0.20;;;;;;;;;;20796297;28;20211;-68
2021/12/30 04:23:04;;;;;;;0.20;0.20;;;;;;;;;;20810723;28;20590;-68
2021/12/30 04:33:06;;;;;;;0.30;0.20;;;;;;;;;;20778236;28;20210;-69
2021/12/30 04:43:10;;;;;;;0.53;0.40;;;;;;;;;;20809423;28;20231;-68
2021/12/30 04:53:13;;;;;;;0.23;0.23;;;10.70;99.90;;;;;;20776772;28;20210;-69
2021/12/30 05:03:16;;;;;;;0.20;0.20;;;;;;;;;;20808081;28;20211;-68
2021/12/30 05:13:18;;;;;;;0.20;0.20;;;;;;;;;;20775252;28;20277;-69
2021/12/30 05:23:20;;;;;;;0.27;0.27;;;;;;;;;;20790485;28;20218;-68
2021/12/30 05:33:23;;;;;;;0.43;0.37;;;11.00;99.90;;;;;;20774590;28;20313;-68
2021/12/30 05:43:25;;;;;;;0.20;0.20;;;;;;;;;;20773595;28;20214;-69
2021/12/30 05:53:27;;;;;;;0.20;0.20;;;10.70;99.90;;;;;;20773648;28;20222;-68
2021/12/30 06:03:30;;;;;;;0.30;0.30;;;;;;;;;;20819732;28;20229;-68
2021/12/30 06:13:32;;;;;;;0.27;0.27;;;;;;;;;;20804810;28;20759;-69
2021/12/30 06:23:34;;;;;;;0.27;0.27;;;;;;;;;;20819929;28;20226;-68
2021/12/30 06:33:36;;;;;;;0.27;0.27;;;;;;;;;;20803403;28;20288;-68
2021/12/30 06:43:39;;;;;;;0.20;0.20;;;;;;;;;;20780309;28;20287;-68
2021/12/30 06:53:41;;;;;;;0.13;0.13;;;;;;;;;;20785863;28;20252;-68
2021/12/30 07:03:43;;;;;;;0.10;0.10;;;;;;;;;;20801392;28;20272;-69
2021/12/30 07:13:44;;;;;;;0.20;0.20;;;;;;;;;;20799377;28;20260;-68
2021/12/30 07:23:46;;;;;;;0.40;0.20;;;11.00;99.90;;;;;;20799554;28;20222;-68
2021/12/30 07:33:48;;;;;;;0.20;0.20;;;;;;;;;;20830437;28;20245;-69
2021/12/30 07:43:50;;;;;;;0.30;0.23;;;;;;;;;;20773085;28;20596;-68
2021/12/30 07:53:52;;;;;;;0.20;0.20;;;;;;;;;;20821444;28;20214;-67
2021/12/30 08:03:54;;;;;;;0.20;0.20;;;;;;;;;;20796370;28;20226;-68
2021/12/30 08:13:56;;;;;;;0.20;0.20;;;;;;;;;;20813037;28;20218;-68
2021/12/30 08:23:58;;;;;;;0.30;0.30;;;;;;;;;;20778175;28;20292;-68
2021/12/30 08:34:00;;;;;;;0.20;0.20;;;11.80;99.90;;;;;;20763401;28;20222;-68
2021/12/30 08:44:02;;;;;;;0.20;0.20;;;;;;;;;;20803163;28;20284;-67
2021/12/30 08:54:04;;;;;;;0.20;0.20;;;;;;;;;;20805286;28;20226;-67
2021/12/30 09:04:06;;;;;;;0.20;0.20;;;;;;;;;;20776413;28;20288;-67
2021/12/30 09:14:08;;;;;;;0.30;0.30;;;;;;;;;;20800711;28;20234;-67
2021/12/30 09:24:11;;;;;;;0.30;0.30;;;;;;;;;;20722957;28;20227;-67
2021/12/30 09:34:14;;;;;;;0.30;0.30;;;11.70;99.90;;;;;;20756199;23;20301;-78
2021/12/30 09:44:17;;;;;;;0.37;0.30;;;;;;;;;;20732968;28;20220;-80
2021/12/30 09:54:19;;;;;;;0.20;0.20;;;;;;;;;;20716807;28;20254;-79
2021/12/30 10:04:33;;;;;;;0.20;0.20;;;12.00;99.90;;;;;;20724722;28;20231;-79
2021/12/30 10:14:37;;;;;;;0.20;0.20;;;12.10;99.90;;;;;;20711113;28;20210;-78
2021/12/30 10:24:39;;;;;;;0.20;0.20;;;;;;;;;;20717479;28;20215;-80
2021/12/30 10:35:00;;;;;;;0.30;0.30;;;;;;;;;;20684156;28;20762;-77
2021/12/30 10:45:05;;;;;;;0.30;0.30;;;12.60;99.90;;;;;;20721633;28;20227;-80
2021/12/30 10:55:13;;;;;;;0.30;0.30;;;12.70;99.90;;;;;;20751834;28;20241;-80
2021/12/30 11:05:18;;;;;;;0.33;0.30;;;;;;;;;;20734793;28;20309;-78
2021/12/30 11:15:24;;;;;;;0.30;0.30;;;;;;;;;;20749486;28;20257;-80
2021/12/30 11:25:26;;;;;;;0.37;0.30;;;;;;;;;;20754453;28;20219;-79
2021/12/30 11:35:28;;;;;;;0.50;0.40;;;;;;;;;;20752320;28;20211;-80
2021/12/30 11:45:42;;;;;;;0.53;0.37;;;12.70;99.90;;;;;;20768068;28;20297;-80
2021/12/30 11:55:50;;;;;;;0.30;0.30;;;;;;;;;;20751265;28;20215;-79
2021/12/30 12:05:53;;;;;;;0.37;0.30;;;;;;;;;;20768678;28;20218;-79
2021/12/30 12:15:55;;;;;;;0.30;0.30;;;;;;;;;;20732568;28;20617;-78
2021/12/30 12:26:14;;;;;;;0.30;0.30;;;;;;;;;;20748387;28;20231;-79
2021/12/30 12:36:32;;;;;;;0.77;0.37;;;13.10;99.90;;;;;;20748614;28;20709;-79
2021/12/30 12:46:47;;;;;;;0.30;0.30;;;13.10;99.90;;;;;;20762924;28;20269;-79
2021/12/30 12:56:49;;;;;;;0.30;0.30;;;12.60;99.90;;;;;;20745638;28;20219;-79
2021/12/30 13:06:51;;;;;;;0.40;0.40;;;;;;;;;;20727611;28;20227;-79
2021/12/30 13:17:04;;;;;;;0.30;0.30;;;13.20;99.90;;;;;;20743435;28;20258;-80
2021/12/30 13:27:29;;;;;;;0.23;0.23;;;13.20;99.90;;;;;;20728119;28;20430;-78
2021/12/30 13:37:42;;;;;;;0.20;0.20;;;;;;;;;;20746299;28;20235;-79
2021/12/30 13:47:44;;;;;;;0.50;0.30;;;;;;;;;;20745913;28;20858;-79
2021/12/30 13:57:59;;;;;;;0.40;0.30;;;13.20;99.90;;;;;;20744589;28;20226;-79
2021/12/30 14:08:05;;;;;;;0.20;0.20;;;;;;;;;;20734472;28;20269;-79
2021/12/30 14:18:09;;;;;;;0.20;0.20;;;13.30;99.90;;;;;;20740729;28;20228;-81
2021/12/30 14:28:26;;;;;;;0.20;0.20;;;;;;;;;;20683419;28;20301;-81
2021/12/30 14:38:29;;;;;;;2.60;1.87;;;;;;;;;;20741206;28;20296;-81
2021/12/30 14:48:32;;;;;;;1.03;0.40;;;;;;;;;;20674987;28;20274;-81
2021/12/30 14:58:34;;;;;;;1.90;0.40;;;;;;;;;;20674322;28;20220;-81
2021/12/30 15:08:36;;;;;;;0.30;0.30;;;;;;;;;;20672216;28;20231;-81
2021/12/30 15:18:38;;;;;;;0.37;0.30;;;13.20;99.90;;;;;;20675966;28;20227;-81
2021/12/30 15:28:41;;;;;;;1.20;0.40;;;;;;;;;;20754001;28;20223;-81
2021/12/30 15:38:43;;;;;;;0.40;0.30;;;;;;;;;;20674956;28;20779;-81
2021/12/30 15:48:45;;;;;;;0.30;0.30;;;;;;;;;;20727758;28;20231;-81
2021/12/30 15:58:47;;;;;;;0.40;0.27;;;;;;;;;;20767626;28;20628;-81
2021/12/30 16:08:49;;;;;;;0.50;0.30;;;;;;;;;;20759371;28;20250;-82
2021/12/30 16:18:51;;;;;;;0.30;0.30;;;;;;;;;;20738680;28;20246;-81
2021/12/30 16:28:53;;;;;;;0.33;0.30;;;12.80;99.90;;;;;;20778835;28;20705;-81
2021/12/30 16:38:56;;;;;;;0.60;0.50;;;;;;;;;;20750523;28;20278;-82
2021/12/30 16:48:59;;;;;;;0.90;0.40;;;12.90;99.90;;;;;;20712447;28;20219;-82
2021/12/30 16:59:01;;;;;;;3.80;0.40;;;;;;;;;;20710876;28;20231;-78
2021/12/30 17:09:03;;;;;;;0.47;0.40;;;;;;;;;;20742221;28;20224;-80
2021/12/30 17:19:05;;;;;;;0.20;0.20;;;;;;;;;;20739765;28;20215;-80
2021/12/30 17:29:08;;;;;;;0.93;0.40;;;12.80;99.90;;;;;;20747737;28;20239;-79
2021/12/30 17:39:13;;;;;;;0.37;0.37;;;;;;;;;;20767299;28;20219;-80
2021/12/30 17:49:15;;;;;;;1.47;0.63;;;;;;;;;;20726794;28;20795;-80
2021/12/30 17:59:17;;;;;;;0.47;0.40;;;;;;;;;;20739547;28;20223;-81
2021/12/30 18:09:19;;;;;;;2.33;0.80;;;;;;;;;;20705185;28;20255;-80
2021/12/30 18:19:21;;;;;;;0.53;0.40;;;;;;;;;;20663957;28;20712;-81
2021/12/30 18:29:23;;;;;;;0.40;0.40;;;;;;;;;;20727100;28;20232;-80
2021/12/30 18:39:27;;;;;;;0.50;0.50;;;;;;;;;;20765991;28;20254;-80
2021/12/30 18:49:30;;;;;;;0.60;0.30;;;;;;;;;;20776279;28;20235;-81
2021/12/30 18:59:32;;;;;;;0.63;0.50;;;;;;;;;;20805532;28;20253;-80
2021/12/30 19:09:35;;;;;;;1.50;0.50;;;;;;;;;;20767401;28;20265;-80
2021/12/30 19:19:36;;;;;;;0.53;0.47;;;;;;;;;;20777751;28;20211;-81
2021/12/30 19:29:38;;;;;;;1.00;0.53;;;;;;;;;;20776905;28;20231;-80
2021/12/30 19:39:41;;;;;;;0.57;0.47;;;;;;;;;;20767701;28;20281;-80
2021/12/30 19:49:43;;;;;;;1.13;0.63;;;12.50;99.90;;;;;;20766650;28;20231;-80
2021/12/30 19:59:48;;;;;;;0.87;0.53;;;;;;;;;;20741433;28;20215;-80
2021/12/30 20:09:51;;;;;;;0.73;0.67;;;;;;;;;;20763603;28;20265;-80
2021/12/30 20:19:54;;;;;;;0.67;0.50;;;;;;;;;;20755506;28;20273;-80
2021/12/30 20:29:57;;;;;;;0.70;0.50;;;;;;;;;;20766103;28;20556;-80
2021/12/30 20:39:59;;;;;;;1.43;0.60;;;;;;;;;;20751644;28;20223;-80
2021/12/30 20:50:02;;;;;;;0.43;0.40;;;;;;;;;;20777881;28;20239;-80
2021/12/30 21:00:07;;;;;;;1.30;0.60;;;;;;;;;;20733675;28;20242;-81
2021/12/30 21:10:12;;;;;;;1.33;0.77;;;12.50;99.90;;;;;;20727881;28;20574;-80
2021/12/30 21:20:16;;;;;;;1.17;0.50;;;12.40;99.90;;;;;;20737067;28;20621;-81
2021/12/30 21:30:19;;;;;;;0.83;0.60;;;;;;;;;;20716785;28;20231;-80
2021/12/30 21:40:21;;;;;;;0.97;0.53;;;12.40;99.90;;;;;;20769532;28;20774;-79
2021/12/30 21:50:24;;;;;;;0.40;0.40;;;;;;;;;;20704716;28;20222;-80
2021/12/30 22:00:26;;;;;;;1.60;0.70;;;;;;;;;;20730616;28;20219;-81
2021/12/30 22:10:29;;;;;;;1.60;0.70;;;;;;;;;;20725716;28;20215;-82
2021/12/30 22:20:32;;;;;;;0.50;0.50;;;;;;;;;;20776687;28;20223;-81
2021/12/30 22:30:34;;;;;;;1.70;1.03;;;12.20;99.90;;;;;;20741832;28;20297;-82
2021/12/30 22:40:36;;;;;;;1.17;0.63;;;12.40;99.90;;;;;;20735107;28;20234;-80
2021/12/30 22:50:38;;;;;;;0.60;0.47;;;;;;;;;;20757348;28;20227;-80
2021/12/30 23:00:51;;;;;;;1.80;0.87;;;;;;;;;;20772134;28;20220;-81
2021/12/30 23:10:53;;;;;;;2.07;0.57;;;;;;;;;;20769675;28;20300;-81
2021/12/30 23:20:57;;;;;;;0.70;0.50;;;;;;;;;;20753148;28;20269;-80
2021/12/30 23:30:59;;;;;;;1.60;0.60;;;;;;;;;;20752442;28;20262;-81
2021/12/30 23:41:01;;;;;;;0.90;0.60;;;;;;;;;;20715703;28;20223;-81
2021/12/30 23:51:03;;;;;;;0.93;0.60;;;;;;;;;;20685569;28;20235;-80
